• Join FlightAware (Why Join?)
  • Login
  • US Flag 
12:09PM EDT


 

Airport Tracker/Info


-or-


 

Live Flight TrackerFlight Track Log ✈ N208CV ✈ 01-May-2012 ✈ KLGB - KSBA

Flight Track Log - Related Links

Times and Time Zones

All times are in EDT time to prevent confusion due to time zone crossing. See the N208CV flight status page for this flight to view local times or setup timezone preferences in your user account.

Time Position Orientation Groundspeed Altitude Reporting Facility
EDT Latitude Longitude Course Direction KTS MPH feet Rate Location/Type
08:39PM 33.8322 -118.1911 283° West  Level FlightAware Approximate
08:40PM 33.8438 -118.2228 277° West  Level FlightAware Approximate
08:41PM 33.8500 -118.2833 292° West 129 148 3,600  Level Southern California TRACON
08:42PM 33.8667 -118.3333 320° Northwest 128 147 4,700 960 Climbing Southern California TRACON
08:43PM 33.9000 -118.3667 320° Northwest 107 123 5,600 600 Climbing Southern California TRACON
08:44PM 33.9167 -118.3833 315° West 112 129 6,000 60 Climbing Southern California TRACON
08:47PM 34.0000 -118.4833 292° West 153 176 6,000  Level Southern California TRACON
08:48PM 34.0167 -118.5333 270° West 146 168 6,000  Level Southern California TRACON
08:49PM 34.0167 -118.5833 292° West 148 170 6,000  Level Southern California TRACON
08:50PM 34.0333 -118.6333 292° West 149 171 6,000  Level Southern California TRACON
08:51PM 34.0500 -118.6833 270° West 149 171 6,000  Level Southern California TRACON
08:52PM 34.0500 -118.7333 292° West 149 171 6,000  Level Southern California TRACON
08:53PM 34.0667 -118.7833 270° West 148 170 6,000  Level Southern California TRACON
08:54PM 34.0667 -118.8333 290° West 151 174 6,000 -120 Level Southern California TRACON
09:02PM 34.1858 -119.2250 296° West 159 183 5,400 -180 Descending Los Angeles Center
09:04PM 34.2172 -119.3014 297° West 166 191 4,700 -480 Descending Los Angeles Center
09:05PM 34.2389 -119.3525 283° West 173 199 4,200 -360 Descending Los Angeles Center
09:06PM 34.2500 -119.4108 262° West 175 201 4,000 -300 Descending Los Angeles Center
09:07PM 34.2442 -119.4633 271° West 172 198 3,600 -420 Descending Los Angeles Center
09:08PM 34.2447 -119.5236 339° North 176 203 3,200 -300 Descending Los Angeles Center
09:09PM 34.2858 -119.5431 324° Northwest 168 193 3,000 -300 Descending Los Angeles Center
09:10PM 34.3247 -119.5772 303° West 165 190 2,700 -420 Descending Los Angeles Center
09:11PM 34.3464 -119.6183 295° West 159 183 2,300 -300 Descending Los Angeles Center
09:12PM 34.3678 -119.6747 298° West 159 183 2,100 -120 Descending Los Angeles Center
09:13PM 34.3872 -119.7183 292° West 155 178 2,100 -420 Level Los Angeles Center
09:14PM 34.4025 -119.7642 304° West 151 174 1,300 -780 Descending Los Angeles Center
09:15PM 34.4225 -119.8003 304° West 139 160 700 -660 Descending Los Angeles Center